23NR weather

Whitfield'S East Airport
Fairfield, North Carolina, United States

Public forecast

Using degrees Fahrenheit for public forecast. Weather courtesy of forecast.io.

METAR (pilot weather report)

Closest report is Hyde County Airport, 13.7 nm (25.3 km) E. Retrieved 2019/04/19 03:40 UTC (17 minutes ago):

K7W6 190340Z AUTO 17008G15KT 10SM SCT036 SCT048 21/17 A3002 RMK AO2 T02050168

TAF (pilot weather forecast)

Forecast is more than 12 hours old.

Closest forecast is Elizabeth City Regional Airport & Coast Guard Air Station, 42.1 nm (78.0 km) N. Retrieved 2019/04/18 00:54 UTC (1 day ago):

TAF TAF KECG 182342Z 1900/1924 18013G20KT P6SM SKC FM190500 18012KT P6SM OVC020 FM191400 18018G27KT P6SM SCT015 OVC100 FM191600 18019G28KT P6SM SCT015 OVC040 FM191800 18021G32KT P6SM OVC030